sensor_id;sensor_type;location;lat;lon;timestamp;P1;durP1;ratioP1;P2;durP2;ratioP2
64686;SDS011;51113;53.646;-113.674;2023-07-08T00:00:28;15.25;;;7.80;;
64686;SDS011;51113;53.646;-113.674;2023-07-08T00:02:57;13.00;;;7.65;;
64686;SDS011;51113;53.646;-113.674;2023-07-08T00:05:26;9.35;;;6.68;;
64686;SDS011;51113;53.646;-113.674;2023-07-08T00:07:54;14.15;;;7.43;;
64686;SDS011;51113;53.646;-113.674;2023-07-08T00:10:24;10.23;;;7.00;;
64686;SDS011;51113;53.646;-113.674;2023-07-08T00:12:55;10.07;;;6.88;;
64686;SDS011;51113;53.646;-113.674;2023-07-08T00:15:28;18.45;;;10.43;;
64686;SDS011;51113;53.646;-113.674;2023-07-08T00:18:00;17.30;;;8.98;;
64686;SDS011;51113;53.646;-113.674;2023-07-08T00:20:36;12.23;;;7.47;;
64686;SDS011;51113;53.646;-113.674;2023-07-08T00:23:11;11.48;;;7.90;;
64686;SDS011;51113;53.646;-113.674;2023-07-08T00:25:40;15.70;;;9.82;;
64686;SDS011;51113;53.646;-113.674;2023-07-08T00:28:12;15.35;;;7.45;;
64686;SDS011;51113;53.646;-113.674;2023-07-08T00:30:45;16.55;;;8.50;;
64686;SDS011;51113;53.646;-113.674;2023-07-08T00:33:14;17.27;;;8.20;;
64686;SDS011;51113;53.646;-113.674;2023-07-08T00:35:44;15.07;;;8.27;;
64686;SDS011;51113;53.646;-113.674;2023-07-08T00:38:22;14.23;;;8.13;;
64686;SDS011;51113;53.646;-113.674;2023-07-08T00:41:06;14.55;;;8.20;;
64686;SDS011;51113;53.646;-113.674;2023-07-08T00:43:51;13.43;;;7.30;;
64686;SDS011;51113;53.646;-113.674;2023-07-08T00:49:08;15.13;;;7.50;;
64686;SDS011;51113;53.646;-113.674;2023-07-08T00:51:43;11.57;;;7.30;;
64686;SDS011;51113;53.646;-113.674;2023-07-08T00:54:13;13.02;;;7.68;;
64686;SDS011;51113;53.646;-113.674;2023-07-08T00:56:59;11.63;;;7.32;;
64686;SDS011;51113;53.646;-113.674;2023-07-08T00:59:32;14.77;;;7.30;;
64686;SDS011;51113;53.646;-113.674;2023-07-08T01:02:06;11.35;;;6.90;;
64686;SDS011;51113;53.646;-113.674;2023-07-08T01:05:22;10.98;;;6.97;;
64686;SDS011;51113;53.646;-113.674;2023-07-08T01:07:31;14.63;;;7.53;;
64686;SDS011;51113;53.646;-113.674;2023-07-08T01:10:02;13.07;;;7.10;;
64686;SDS011;51113;53.646;-113.674;2023-07-08T01:12:35;14.88;;;6.90;;
64686;SDS011;51113;53.646;-113.674;2023-07-08T01:15:07;11.05;;;7.65;;
64686;SDS011;51113;53.646;-113.674;2023-07-08T01:17:37;11.00;;;8.02;;
64686;SDS011;51113;53.646;-113.674;2023-07-08T01:20:07;13.90;;;7.18;;
64686;SDS011;51113;53.646;-113.674;2023-07-08T01:22:43;11.13;;;7.47;;
64686;SDS011;51113;53.646;-113.674;2023-07-08T01:25:12;15.60;;;7.43;;
64686;SDS011;51113;53.646;-113.674;2023-07-08T01:27:43;16.88;;;7.50;;
64686;SDS011;51113;53.646;-113.674;2023-07-08T01:30:15;12.77;;;7.55;;
64686;SDS011;51113;53.646;-113.674;2023-07-08T01:32:51;14.35;;;7.40;;
64686;SDS011;51113;53.646;-113.674;2023-07-08T01:35:25;11.65;;;7.43;;
64686;SDS011;51113;53.646;-113.674;2023-07-08T01:37:56;13.52;;;7.75;;
64686;SDS011;51113;53.646;-113.674;2023-07-08T01:45:40;11.20;;;7.57;;
64686;SDS011;51113;53.646;-113.674;2023-07-08T01:48:11;12.57;;;7.65;;
64686;SDS011;51113;53.646;-113.674;2023-07-08T01:50:43;10.45;;;7.70;;
64686;SDS011;51113;53.646;-113.674;2023-07-08T01:53:29;14.60;;;7.60;;
64686;SDS011;51113;53.646;-113.674;2023-07-08T01:56:01;19.05;;;8.10;;
64686;SDS011;51113;53.646;-113.674;2023-07-08T01:58:30;13.32;;;7.75;;
64686;SDS011;51113;53.646;-113.674;2023-07-08T02:00:59;14.57;;;7.75;;
64686;SDS011;51113;53.646;-113.674;2023-07-08T02:03:28;11.57;;;8.05;;
64686;SDS011;51113;53.646;-113.674;2023-07-08T02:05:57;15.57;;;7.70;;
64686;SDS011;51113;53.646;-113.674;2023-07-08T02:08:26;15.90;;;7.63;;
64686;SDS011;51113;53.646;-113.674;2023-07-08T02:10:56;13.38;;;7.70;;
64686;SDS011;51113;53.646;-113.674;2023-07-08T02:13:26;15.23;;;7.60;;
64686;SDS011;51113;53.646;-113.674;2023-07-08T02:15:55;13.98;;;8.40;;
64686;SDS011;51113;53.646;-113.674;2023-07-08T02:18:25;13.38;;;7.32;;
64686;SDS011;51113;53.646;-113.674;2023-07-08T02:20:57;10.95;;;7.85;;
64686;SDS011;51113;53.646;-113.674;2023-07-08T02:23:26;15.05;;;7.70;;
64686;SDS011;51113;53.646;-113.674;2023-07-08T02:25:55;13.75;;;8.10;;
64686;SDS011;51113;53.646;-113.674;2023-07-08T02:28:23;16.02;;;8.27;;
64686;SDS011;51113;53.646;-113.674;2023-07-08T02:30:52;19.05;;;8.43;;
64686;SDS011;51113;53.646;-113.674;2023-07-08T02:33:21;13.43;;;7.65;;
64686;SDS011;51113;53.646;-113.674;2023-07-08T02:36:00;16.20;;;7.85;;
64686;SDS011;51113;53.646;-113.674;2023-07-08T02:38:29;15.95;;;8.40;;
64686;SDS011;51113;53.646;-113.674;2023-07-08T02:40:58;14.80;;;8.20;;
64686;SDS011;51113;53.646;-113.674;2023-07-08T02:43:27;12.02;;;7.88;;
64686;SDS011;51113;53.646;-113.674;2023-07-08T02:45:55;12.75;;;8.25;;
64686;SDS011;51113;53.646;-113.674;2023-07-08T02:48:24;15.98;;;8.27;;
64686;SDS011;51113;53.646;-113.674;2023-07-08T02:50:57;17.75;;;8.07;;
64686;SDS011;51113;53.646;-113.674;2023-07-08T02:53:30;15.40;;;8.45;;
64686;SDS011;51113;53.646;-113.674;2023-07-08T02:55:59;15.05;;;8.45;;
64686;SDS011;51113;53.646;-113.674;2023-07-08T02:58:28;18.95;;;8.88;;
64686;SDS011;51113;53.646;-113.674;2023-07-08T03:00:57;17.15;;;9.30;;
64686;SDS011;51113;53.646;-113.674;2023-07-08T03:03:29;13.90;;;9.02;;
64686;SDS011;51113;53.646;-113.674;2023-07-08T03:05:59;17.17;;;8.73;;
64686;SDS011;51113;53.646;-113.674;2023-07-08T03:08:30;17.08;;;8.70;;
64686;SDS011;51113;53.646;-113.674;2023-07-08T03:11:00;19.60;;;9.23;;
64686;SDS011;51113;53.646;-113.674;2023-07-08T03:13:31;14.40;;;9.47;;
64686;SDS011;51113;53.646;-113.674;2023-07-08T03:16:01;19.13;;;9.27;;
64686;SDS011;51113;53.646;-113.674;2023-07-08T03:18:30;17.38;;;8.73;;
64686;SDS011;51113;53.646;-113.674;2023-07-08T03:20:59;19.38;;;9.73;;
64686;SDS011;51113;53.646;-113.674;2023-07-08T03:23:28;14.50;;;8.80;;
64686;SDS011;51113;53.646;-113.674;2023-07-08T03:25:56;14.50;;;9.73;;
64686;SDS011;51113;53.646;-113.674;2023-07-08T03:28:25;14.50;;;9.50;;
64686;SDS011;51113;53.646;-113.674;2023-07-08T03:30:54;15.32;;;9.80;;
64686;SDS011;51113;53.646;-113.674;2023-07-08T03:33:23;15.82;;;8.95;;
64686;SDS011;51113;53.646;-113.674;2023-07-08T03:35:51;14.63;;;8.80;;
64686;SDS011;51113;53.646;-113.674;2023-07-08T03:38:20;14.50;;;9.43;;
64686;SDS011;51113;53.646;-113.674;2023-07-08T03:40:49;17.20;;;9.85;;
64686;SDS011;51113;53.646;-113.674;2023-07-08T03:43:18;14.02;;;9.18;;
64686;SDS011;51113;53.646;-113.674;2023-07-08T03:45:46;18.88;;;9.98;;
64686;SDS011;51113;53.646;-113.674;2023-07-08T03:48:15;23.13;;;9.73;;
64686;SDS011;51113;53.646;-113.674;2023-07-08T03:50:44;14.77;;;9.07;;
64686;SDS011;51113;53.646;-113.674;2023-07-08T03:53:13;20.73;;;10.05;;
64686;SDS011;51113;53.646;-113.674;2023-07-08T03:55:41;18.15;;;9.32;;
64686;SDS011;51113;53.646;-113.674;2023-07-08T03:58:10;20.52;;;10.00;;
64686;SDS011;51113;53.646;-113.674;2023-07-08T04:00:38;17.58;;;10.05;;
64686;SDS011;51113;53.646;-113.674;2023-07-08T04:03:08;22.27;;;10.70;;
64686;SDS011;51113;53.646;-113.674;2023-07-08T04:05:39;14.88;;;9.85;;
64686;SDS011;51113;53.646;-113.674;2023-07-08T04:08:08;16.63;;;10.30;;
64686;SDS011;51113;53.646;-113.674;2023-07-08T04:10:36;15.75;;;10.30;;
64686;SDS011;51113;53.646;-113.674;2023-07-08T04:13:05;24.50;;;10.60;;
64686;SDS011;51113;53.646;-113.674;2023-07-08T04:15:33;14.88;;;10.07;;
64686;SDS011;51113;53.646;-113.674;2023-07-08T04:18:02;16.50;;;10.13;;
64686;SDS011;51113;53.646;-113.674;2023-07-08T04:20:31;20.20;;;10.20;;
64686;SDS011;51113;53.646;-113.674;2023-07-08T04:22:59;18.10;;;10.38;;
64686;SDS011;51113;53.646;-113.674;2023-07-08T04:25:28;16.13;;;10.20;;
64686;SDS011;51113;53.646;-113.674;2023-07-08T04:27:57;17.70;;;10.52;;
64686;SDS011;51113;53.646;-113.674;2023-07-08T04:30:25;19.40;;;11.43;;
64686;SDS011;51113;53.646;-113.674;2023-07-08T04:32:54;19.42;;;10.93;;
64686;SDS011;51113;53.646;-113.674;2023-07-08T04:35:23;18.77;;;10.30;;
64686;SDS011;51113;53.646;-113.674;2023-07-08T04:37:52;18.80;;;11.32;;
64686;SDS011;51113;53.646;-113.674;2023-07-08T04:40:22;15.77;;;11.43;;
64686;SDS011;51113;53.646;-113.674;2023-07-08T04:42:51;16.05;;;10.68;;
64686;SDS011;51113;53.646;-113.674;2023-07-08T04:45:19;21.50;;;11.05;;
64686;SDS011;51113;53.646;-113.674;2023-07-08T04:47:49;19.77;;;10.18;;
64686;SDS011;51113;53.646;-113.674;2023-07-08T04:50:20;16.88;;;11.32;;
64686;SDS011;51113;53.646;-113.674;2023-07-08T04:52:48;23.08;;;11.15;;
64686;SDS011;51113;53.646;-113.674;2023-07-08T04:55:18;16.27;;;10.65;;
64686;SDS011;51113;53.646;-113.674;2023-07-08T04:57:46;18.77;;;10.68;;
64686;SDS011;51113;53.646;-113.674;2023-07-08T05:00:16;18.90;;;11.75;;
64686;SDS011;51113;53.646;-113.674;2023-07-08T05:02:47;17.45;;;11.77;;
64686;SDS011;51113;53.646;-113.674;2023-07-08T05:05:16;23.50;;;12.23;;
64686;SDS011;51113;53.646;-113.674;2023-07-08T05:07:44;19.10;;;11.73;;
64686;SDS011;51113;53.646;-113.674;2023-07-08T05:10:13;22.35;;;10.93;;
64686;SDS011;51113;53.646;-113.674;2023-07-08T05:12:42;22.52;;;11.88;;
64686;SDS011;51113;53.646;-113.674;2023-07-08T05:15:13;22.88;;;11.82;;
64686;SDS011;51113;53.646;-113.674;2023-07-08T05:17:43;18.92;;;11.55;;
64686;SDS011;51113;53.646;-113.674;2023-07-08T05:20:12;25.38;;;12.55;;
64686;SDS011;51113;53.646;-113.674;2023-07-08T05:22:42;19.20;;;12.00;;
64686;SDS011;51113;53.646;-113.674;2023-07-08T05:25:11;16.02;;;11.30;;
64686;SDS011;51113;53.646;-113.674;2023-07-08T05:27:40;18.05;;;11.30;;
64686;SDS011;51113;53.646;-113.674;2023-07-08T05:30:11;16.85;;;11.50;;
64686;SDS011;51113;53.646;-113.674;2023-07-08T05:32:44;22.08;;;11.70;;
64686;SDS011;51113;53.646;-113.674;2023-07-08T05:35:13;18.23;;;12.20;;
64686;SDS011;51113;53.646;-113.674;2023-07-08T05:37:42;22.00;;;11.98;;
64686;SDS011;51113;53.646;-113.674;2023-07-08T05:40:14;21.13;;;11.65;;
64686;SDS011;51113;53.646;-113.674;2023-07-08T05:42:43;21.42;;;12.15;;
64686;SDS011;51113;53.646;-113.674;2023-07-08T05:45:12;18.40;;;12.00;;
64686;SDS011;51113;53.646;-113.674;2023-07-08T05:47:41;23.80;;;12.55;;
64686;SDS011;51113;53.646;-113.674;2023-07-08T05:50:09;23.35;;;12.93;;
64686;SDS011;51113;53.646;-113.674;2023-07-08T05:52:37;19.48;;;13.35;;
64686;SDS011;51113;53.646;-113.674;2023-07-08T05:55:06;21.73;;;12.93;;
64686;SDS011;51113;53.646;-113.674;2023-07-08T05:57:35;23.73;;;14.30;;
64686;SDS011;51113;53.646;-113.674;2023-07-08T06:00:04;22.83;;;13.07;;
64686;SDS011;51113;53.646;-113.674;2023-07-08T06:02:33;24.17;;;13.02;;
64686;SDS011;51113;53.646;-113.674;2023-07-08T06:05:02;24.20;;;12.82;;
64686;SDS011;51113;53.646;-113.674;2023-07-08T06:07:31;25.33;;;13.50;;
64686;SDS011;51113;53.646;-113.674;2023-07-08T06:10:00;22.73;;;13.73;;
64686;SDS011;51113;53.646;-113.674;2023-07-08T06:12:29;20.10;;;12.80;;
64686;SDS011;51113;53.646;-113.674;2023-07-08T06:14:58;21.55;;;12.73;;
64686;SDS011;51113;53.646;-113.674;2023-07-08T06:17:27;23.90;;;13.57;;
64686;SDS011;51113;53.646;-113.674;2023-07-08T06:19:55;23.33;;;14.35;;
64686;SDS011;51113;53.646;-113.674;2023-07-08T06:22:25;20.10;;;12.55;;
64686;SDS011;51113;53.646;-113.674;2023-07-08T06:24:56;22.80;;;13.48;;
64686;SDS011;51113;53.646;-113.674;2023-07-08T06:27:25;23.35;;;12.85;;
64686;SDS011;51113;53.646;-113.674;2023-07-08T06:29:53;21.20;;;13.13;;
64686;SDS011;51113;53.646;-113.674;2023-07-08T06:32:22;22.45;;;13.55;;
64686;SDS011;51113;53.646;-113.674;2023-07-08T06:34:51;21.48;;;12.85;;
64686;SDS011;51113;53.646;-113.674;2023-07-08T06:37:19;21.88;;;13.18;;
64686;SDS011;51113;53.646;-113.674;2023-07-08T06:39:48;29.33;;;13.38;;
64686;SDS011;51113;53.646;-113.674;2023-07-08T06:42:17;24.52;;;13.30;;
64686;SDS011;51113;53.646;-113.674;2023-07-08T06:44:45;21.10;;;13.05;;
64686;SDS011;51113;53.646;-113.674;2023-07-08T06:47:19;19.33;;;13.07;;
64686;SDS011;51113;53.646;-113.674;2023-07-08T06:49:49;21.98;;;13.05;;
64686;SDS011;51113;53.646;-113.674;2023-07-08T06:52:17;28.45;;;13.35;;
64686;SDS011;51113;53.646;-113.674;2023-07-08T06:54:46;21.58;;;13.07;;
64686;SDS011;51113;53.646;-113.674;2023-07-08T06:57:14;22.58;;;12.82;;
64686;SDS011;51113;53.646;-113.674;2023-07-08T06:59:43;24.17;;;13.63;;
64686;SDS011;51113;53.646;-113.674;2023-07-08T07:02:12;25.08;;;13.15;;
64686;SDS011;51113;53.646;-113.674;2023-07-08T07:04:41;22.60;;;12.73;;
64686;SDS011;51113;53.646;-113.674;2023-07-08T07:07:09;21.98;;;13.45;;
64686;SDS011;51113;53.646;-113.674;2023-07-08T07:09:38;24.50;;;13.43;;
64686;SDS011;51113;53.646;-113.674;2023-07-08T07:12:07;24.20;;;13.15;;
64686;SDS011;51113;53.646;-113.674;2023-07-08T07:14:36;27.17;;;13.52;;
64686;SDS011;51113;53.646;-113.674;2023-07-08T07:17:07;25.40;;;13.45;;
64686;SDS011;51113;53.646;-113.674;2023-07-08T07:19:36;23.15;;;13.13;;
64686;SDS011;51113;53.646;-113.674;2023-07-08T07:22:05;21.35;;;12.68;;
64686;SDS011;51113;53.646;-113.674;2023-07-08T07:24:34;22.58;;;13.05;;
64686;SDS011;51113;53.646;-113.674;2023-07-08T07:27:02;19.55;;;12.60;;
64686;SDS011;51113;53.646;-113.674;2023-07-08T07:29:44;22.73;;;12.98;;
64686;SDS011;51113;53.646;-113.674;2023-07-08T07:32:15;20.45;;;12.63;;
64686;SDS011;51113;53.646;-113.674;2023-07-08T07:34:48;19.90;;;12.68;;
64686;SDS011;51113;53.646;-113.674;2023-07-08T07:37:19;27.40;;;12.80;;
64686;SDS011;51113;53.646;-113.674;2023-07-08T07:39:48;22.55;;;12.63;;
64686;SDS011;51113;53.646;-113.674;2023-07-08T07:42:18;22.95;;;12.88;;
64686;SDS011;51113;53.646;-113.674;2023-07-08T07:44:47;21.50;;;12.93;;
64686;SDS011;51113;53.646;-113.674;2023-07-08T07:47:16;19.77;;;12.68;;
64686;SDS011;51113;53.646;-113.674;2023-07-08T07:49:44;22.45;;;12.93;;
64686;SDS011;51113;53.646;-113.674;2023-07-08T07:52:13;18.70;;;13.20;;
64686;SDS011;51113;53.646;-113.674;2023-07-08T07:54:43;23.52;;;13.57;;
64686;SDS011;51113;53.646;-113.674;2023-07-08T07:57:12;24.27;;;12.88;;
64686;SDS011;51113;53.646;-113.674;2023-07-08T07:59:40;21.23;;;12.75;;
64686;SDS011;51113;53.646;-113.674;2023-07-08T08:02:09;23.85;;;12.93;;
64686;SDS011;51113;53.646;-113.674;2023-07-08T08:04:39;28.48;;;13.48;;
64686;SDS011;51113;53.646;-113.674;2023-07-08T08:07:08;21.63;;;12.95;;
64686;SDS011;51113;53.646;-113.674;2023-07-08T08:09:37;18.98;;;12.93;;
64686;SDS011;51113;53.646;-113.674;2023-07-08T08:12:07;24.48;;;13.38;;
64686;SDS011;51113;53.646;-113.674;2023-07-08T08:14:37;24.98;;;13.40;;
64686;SDS011;51113;53.646;-113.674;2023-07-08T08:17:06;23.73;;;12.63;;
64686;SDS011;51113;53.646;-113.674;2023-07-08T08:19:35;22.65;;;12.75;;
64686;SDS011;51113;53.646;-113.674;2023-07-08T08:22:03;26.25;;;13.23;;
64686;SDS011;51113;53.646;-113.674;2023-07-08T08:24:33;22.02;;;14.02;;
64686;SDS011;51113;53.646;-113.674;2023-07-08T08:27:02;19.15;;;12.27;;
64686;SDS011;51113;53.646;-113.674;2023-07-08T08:29:31;22.20;;;13.20;;
64686;SDS011;51113;53.646;-113.674;2023-07-08T08:31:59;21.92;;;12.35;;
64686;SDS011;51113;53.646;-113.674;2023-07-08T08:34:28;20.35;;;12.70;;
64686;SDS011;51113;53.646;-113.674;2023-07-08T08:36:57;19.13;;;12.57;;
64686;SDS011;51113;53.646;-113.674;2023-07-08T08:39:28;23.83;;;12.95;;
64686;SDS011;51113;53.646;-113.674;2023-07-08T08:41:57;21.33;;;13.00;;
64686;SDS011;51113;53.646;-113.674;2023-07-08T08:44:28;22.15;;;13.05;;
64686;SDS011;51113;53.646;-113.674;2023-07-08T08:47:06;22.23;;;12.55;;
64686;SDS011;51113;53.646;-113.674;2023-07-08T08:49:48;19.65;;;11.93;;
64686;SDS011;51113;53.646;-113.674;2023-07-08T08:52:22;23.58;;;12.75;;
64686;SDS011;51113;53.646;-113.674;2023-07-08T08:54:51;24.13;;;13.25;;
64686;SDS011;51113;53.646;-113.674;2023-07-08T08:59:53;24.13;;;13.25;;
64686;SDS011;51113;53.646;-113.674;2023-07-08T09:02:38;16.87;;;11.97;;
64686;SDS011;51113;53.646;-113.674;2023-07-08T09:05:11;22.75;;;12.45;;
64686;SDS011;51113;53.646;-113.674;2023-07-08T09:13:27;19.58;;;12.15;;
64686;SDS011;51113;53.646;-113.674;2023-07-08T09:16:05;24.60;;;12.82;;
64686;SDS011;51113;53.646;-113.674;2023-07-08T09:21:16;23.83;;;12.98;;
64686;SDS011;51113;53.646;-113.674;2023-07-08T09:23:51;19.85;;;12.77;;
64686;SDS011;51113;53.646;-113.674;2023-07-08T09:26:28;20.25;;;12.23;;
64686;SDS011;51113;53.646;-113.674;2023-07-08T09:28:58;21.70;;;11.93;;
64686;SDS011;51113;53.646;-113.674;2023-07-08T09:31:29;23.35;;;11.75;;
64686;SDS011;51113;53.646;-113.674;2023-07-08T09:34:11;22.58;;;12.57;;
64686;SDS011;51113;53.646;-113.674;2023-07-08T09:36:46;23.40;;;12.65;;
64686;SDS011;51113;53.646;-113.674;2023-07-08T09:39:17;18.10;;;12.32;;
64686;SDS011;51113;53.646;-113.674;2023-07-08T09:41:48;21.80;;;12.65;;
64686;SDS011;51113;53.646;-113.674;2023-07-08T09:44:25;23.23;;;12.73;;
64686;SDS011;51113;53.646;-113.674;2023-07-08T09:46:58;19.33;;;12.25;;
64686;SDS011;51113;53.646;-113.674;2023-07-08T09:51:55;21.10;;;11.82;;
64686;SDS011;51113;53.646;-113.674;2023-07-08T09:54:25;19.52;;;12.20;;
64686;SDS011;51113;53.646;-113.674;2023-07-08T09:56:55;18.98;;;11.98;;
64686;SDS011;51113;53.646;-113.674;2023-07-08T09:59:49;22.27;;;12.20;;
64686;SDS011;51113;53.646;-113.674;2023-07-08T10:02:29;20.42;;;12.30;;
64686;SDS011;51113;53.646;-113.674;2023-07-08T10:07:55;17.77;;;12.20;;
64686;SDS011;51113;53.646;-113.674;2023-07-08T10:10:32;19.73;;;11.77;;
64686;SDS011;51113;53.646;-113.674;2023-07-08T10:13:14;21.77;;;12.82;;
64686;SDS011;51113;53.646;-113.674;2023-07-08T10:15:46;24.10;;;12.15;;
64686;SDS011;51113;53.646;-113.674;2023-07-08T10:18:23;21.85;;;13.18;;
64686;SDS011;51113;53.646;-113.674;2023-07-08T10:21:07;20.55;;;12.45;;
64686;SDS011;51113;53.646;-113.674;2023-07-08T10:27:04;21.75;;;12.07;;
64686;SDS011;51113;53.646;-113.674;2023-07-08T10:29:54;22.15;;;12.73;;
64686;SDS011;51113;53.646;-113.674;2023-07-08T10:46:01;24.90;;;12.85;;
64686;SDS011;51113;53.646;-113.674;2023-07-08T10:48:43;21.70;;;12.20;;
64686;SDS011;51113;53.646;-113.674;2023-07-08T11:08:12;19.17;;;12.57;;
64686;SDS011;51113;53.646;-113.674;2023-07-08T11:13:18;20.02;;;13.32;;
64686;SDS011;51113;53.646;-113.674;2023-07-08T11:15:52;21.77;;;13.40;;
64686;SDS011;51113;53.646;-113.674;2023-07-08T11:21:35;19.35;;;12.55;;
64686;SDS011;51113;53.646;-113.674;2023-07-08T11:26:57;22.23;;;12.82;;
64686;SDS011;51113;53.646;-113.674;2023-07-08T11:29:52;24.10;;;12.02;;
64686;SDS011;51113;53.646;-113.674;2023-07-08T11:32:26;19.85;;;12.57;;
64686;SDS011;51113;53.646;-113.674;2023-07-08T11:34:57;22.80;;;12.60;;
64686;SDS011;51113;53.646;-113.674;2023-07-08T11:37:29;23.48;;;13.55;;
64686;SDS011;51113;53.646;-113.674;2023-07-08T11:40:00;19.42;;;13.40;;
64686;SDS011;51113;53.646;-113.674;2023-07-08T11:42:47;27.67;;;13.45;;
64686;SDS011;51113;53.646;-113.674;2023-07-08T11:48:06;18.90;;;12.77;;
64686;SDS011;51113;53.646;-113.674;2023-07-08T11:50:36;22.80;;;13.13;;
64686;SDS011;51113;53.646;-113.674;2023-07-08T11:53:09;20.85;;;12.93;;
64686;SDS011;51113;53.646;-113.674;2023-07-08T12:01:27;24.80;;;12.85;;
64686;SDS011;51113;53.646;-113.674;2023-07-08T12:11:53;20.73;;;12.80;;
64686;SDS011;51113;53.646;-113.674;2023-07-08T12:14:29;22.05;;;13.15;;
64686;SDS011;51113;53.646;-113.674;2023-07-08T12:16:59;31.20;;;14.10;;
64686;SDS011;51113;53.646;-113.674;2023-07-08T12:19:28;22.77;;;13.05;;
64686;SDS011;51113;53.646;-113.674;2023-07-08T12:22:01;21.52;;;12.73;;
64686;SDS011;51113;53.646;-113.674;2023-07-08T12:24:30;24.90;;;14.35;;
64686;SDS011;51113;53.646;-113.674;2023-07-08T12:26:59;22.38;;;12.60;;
64686;SDS011;51113;53.646;-113.674;2023-07-08T12:29:28;23.27;;;12.68;;
64686;SDS011;51113;53.646;-113.674;2023-07-08T12:31:56;19.83;;;12.98;;
64686;SDS011;51113;53.646;-113.674;2023-07-08T12:34:26;24.02;;;13.15;;
64686;SDS011;51113;53.646;-113.674;2023-07-08T12:36:55;24.25;;;13.15;;
64686;SDS011;51113;53.646;-113.674;2023-07-08T12:39:23;25.42;;;13.57;;
64686;SDS011;51113;53.646;-113.674;2023-07-08T12:41:52;22.23;;;13.73;;
64686;SDS011;51113;53.646;-113.674;2023-07-08T12:44:21;20.60;;;13.13;;
64686;SDS011;51113;53.646;-113.674;2023-07-08T12:46:52;25.42;;;14.05;;
64686;SDS011;51113;53.646;-113.674;2023-07-08T12:49:22;24.05;;;13.60;;
64686;SDS011;51113;53.646;-113.674;2023-07-08T12:51:55;19.65;;;12.68;;
64686;SDS011;51113;53.646;-113.674;2023-07-08T12:54:24;24.38;;;13.95;;
64686;SDS011;51113;53.646;-113.674;2023-07-08T12:56:53;24.70;;;13.32;;
64686;SDS011;51113;53.646;-113.674;2023-07-08T12:59:22;22.17;;;12.30;;
64686;SDS011;51113;53.646;-113.674;2023-07-08T13:01:52;20.33;;;12.85;;
64686;SDS011;51113;53.646;-113.674;2023-07-08T13:04:21;21.35;;;11.88;;
64686;SDS011;51113;53.646;-113.674;2023-07-08T13:06:50;22.17;;;12.50;;
64686;SDS011;51113;53.646;-113.674;2023-07-08T13:12:16;27.45;;;13.18;;
64686;SDS011;51113;53.646;-113.674;2023-07-08T13:14:52;24.17;;;12.75;;
64686;SDS011;51113;53.646;-113.674;2023-07-08T13:17:25;22.60;;;13.00;;
64686;SDS011;51113;53.646;-113.674;2023-07-08T13:19:54;22.45;;;12.18;;
64686;SDS011;51113;53.646;-113.674;2023-07-08T13:22:25;21.73;;;12.00;;
64686;SDS011;51113;53.646;-113.674;2023-07-08T13:25:00;23.95;;;12.25;;
64686;SDS011;51113;53.646;-113.674;2023-07-08T13:27:30;17.23;;;11.70;;
64686;SDS011;51113;53.646;-113.674;2023-07-08T13:30:08;19.90;;;11.63;;
64686;SDS011;51113;53.646;-113.674;2023-07-08T13:32:48;19.25;;;11.55;;
64686;SDS011;51113;53.646;-113.674;2023-07-08T13:38:20;16.58;;;11.20;;
64686;SDS011;51113;53.646;-113.674;2023-07-08T13:40:54;16.50;;;11.23;;
64686;SDS011;51113;53.646;-113.674;2023-07-08T13:43:28;22.27;;;10.93;;
64686;SDS011;51113;53.646;-113.674;2023-07-08T13:45:59;18.08;;;10.75;;
64686;SDS011;51113;53.646;-113.674;2023-07-08T13:48:38;19.05;;;10.85;;
64686;SDS011;51113;53.646;-113.674;2023-07-08T13:53:47;17.20;;;10.82;;
64686;SDS011;51113;53.646;-113.674;2023-07-08T13:56:29;22.30;;;10.20;;
64686;SDS011;51113;53.646;-113.674;2023-07-08T13:59:01;23.98;;;10.63;;
64686;SDS011;51113;53.646;-113.674;2023-07-08T14:01:38;14.40;;;9.63;;
64686;SDS011;51113;53.646;-113.674;2023-07-08T14:04:10;16.17;;;10.15;;
64686;SDS011;51113;53.646;-113.674;2023-07-08T14:06:41;16.60;;;10.18;;
64686;SDS011;51113;53.646;-113.674;2023-07-08T14:09:14;20.20;;;10.68;;
64686;SDS011;51113;53.646;-113.674;2023-07-08T14:11:45;14.13;;;9.13;;
64686;SDS011;51113;53.646;-113.674;2023-07-08T14:14:14;15.55;;;9.95;;
64686;SDS011;51113;53.646;-113.674;2023-07-08T14:16:43;15.38;;;10.18;;
64686;SDS011;51113;53.646;-113.674;2023-07-08T14:19:19;16.70;;;10.23;;
64686;SDS011;51113;53.646;-113.674;2023-07-08T14:21:53;15.70;;;10.43;;
64686;SDS011;51113;53.646;-113.674;2023-07-08T14:24:24;17.10;;;10.10;;
64686;SDS011;51113;53.646;-113.674;2023-07-08T14:26:53;15.73;;;9.82;;
64686;SDS011;51113;53.646;-113.674;2023-07-08T14:29:22;22.02;;;11.07;;
64686;SDS011;51113;53.646;-113.674;2023-07-08T14:31:50;17.85;;;10.98;;
64686;SDS011;51113;53.646;-113.674;2023-07-08T14:34:23;21.35;;;10.27;;
64686;SDS011;51113;53.646;-113.674;2023-07-08T14:36:53;17.88;;;10.13;;
64686;SDS011;51113;53.646;-113.674;2023-07-08T14:39:24;22.63;;;10.38;;
64686;SDS011;51113;53.646;-113.674;2023-07-08T14:41:54;16.10;;;10.77;;
64686;SDS011;51113;53.646;-113.674;2023-07-08T14:44:23;16.52;;;9.77;;
64686;SDS011;51113;53.646;-113.674;2023-07-08T14:46:54;18.23;;;10.03;;
64686;SDS011;51113;53.646;-113.674;2023-07-08T14:49:24;22.45;;;9.63;;
64686;SDS011;51113;53.646;-113.674;2023-07-08T14:51:54;14.07;;;9.40;;
64686;SDS011;51113;53.646;-113.674;2023-07-08T14:54:22;24.15;;;10.35;;
64686;SDS011;51113;53.646;-113.674;2023-07-08T14:56:52;18.73;;;9.85;;
64686;SDS011;51113;53.646;-113.674;2023-07-08T14:59:24;19.95;;;10.75;;
64686;SDS011;51113;53.646;-113.674;2023-07-08T15:01:56;29.88;;;10.25;;
64686;SDS011;51113;53.646;-113.674;2023-07-08T15:04:27;16.05;;;9.35;;
64686;SDS011;51113;53.646;-113.674;2023-07-08T15:06:57;17.08;;;8.50;;
64686;SDS011;51113;53.646;-113.674;2023-07-08T15:09:27;12.98;;;8.95;;
64686;SDS011;51113;53.646;-113.674;2023-07-08T15:11:56;21.58;;;9.10;;
64686;SDS011;51113;53.646;-113.674;2023-07-08T15:14:25;11.88;;;8.30;;
64686;SDS011;51113;53.646;-113.674;2023-07-08T15:16:54;14.55;;;8.02;;
64686;SDS011;51113;53.646;-113.674;2023-07-08T15:19:23;12.02;;;7.65;;
64686;SDS011;51113;53.646;-113.674;2023-07-08T15:21:53;13.23;;;8.18;;
64686;SDS011;51113;53.646;-113.674;2023-07-08T15:24:21;18.67;;;8.40;;
64686;SDS011;51113;53.646;-113.674;2023-07-08T15:26:52;15.32;;;7.68;;
64686;SDS011;51113;53.646;-113.674;2023-07-08T15:29:21;13.52;;;7.32;;
64686;SDS011;51113;53.646;-113.674;2023-07-08T15:31:51;12.80;;;7.75;;
64686;SDS011;51113;53.646;-113.674;2023-07-08T15:34:21;14.65;;;7.75;;
64686;SDS011;51113;53.646;-113.674;2023-07-08T15:36:50;17.42;;;8.23;;
64686;SDS011;51113;53.646;-113.674;2023-07-08T15:39:19;14.15;;;8.05;;
64686;SDS011;51113;53.646;-113.674;2023-07-08T15:41:48;15.45;;;8.13;;